sensor_id;sensor_type;location;lat;lon;timestamp;P1;durP1;ratioP1;P2;durP2;ratioP2
7154;SDS011;3619;53.784;10.440;2023-10-13T00:01:20;2.40;;;2.30;;
7154;SDS011;3619;53.784;10.440;2023-10-13T00:03:48;2.03;;;1.93;;
7154;SDS011;3619;53.784;10.440;2023-10-13T00:06:17;2.83;;;2.73;;
7154;SDS011;3619;53.784;10.440;2023-10-13T00:08:46;2.23;;;2.13;;
7154;SDS011;3619;53.784;10.440;2023-10-13T00:11:13;1.80;;;1.80;;
7154;SDS011;3619;53.784;10.440;2023-10-13T00:13:41;2.10;;;2.00;;
7154;SDS011;3619;53.784;10.440;2023-10-13T00:16:15;2.70;;;2.60;;
7154;SDS011;3619;53.784;10.440;2023-10-13T00:18:46;1.63;;;1.63;;
7154;SDS011;3619;53.784;10.440;2023-10-13T00:21:16;1.70;;;1.70;;
7154;SDS011;3619;53.784;10.440;2023-10-13T00:23:56;2.43;;;2.33;;
7154;SDS011;3619;53.784;10.440;2023-10-13T00:26:27;2.20;;;2.10;;
7154;SDS011;3619;53.784;10.440;2023-10-13T00:28:55;2.40;;;2.30;;
7154;SDS011;3619;53.784;10.440;2023-10-13T00:31:34;2.43;;;2.33;;
7154;SDS011;3619;53.784;10.440;2023-10-13T00:34:04;2.13;;;2.03;;
7154;SDS011;3619;53.784;10.440;2023-10-13T00:36:38;2.43;;;2.33;;
7154;SDS011;3619;53.784;10.440;2023-10-13T00:39:14;2.53;;;2.43;;
7154;SDS011;3619;53.784;10.440;2023-10-13T00:41:42;2.13;;;2.03;;
7154;SDS011;3619;53.784;10.440;2023-10-13T00:44:23;2.20;;;2.10;;
7154;SDS011;3619;53.784;10.440;2023-10-13T00:46:53;2.43;;;2.33;;
7154;SDS011;3619;53.784;10.440;2023-10-13T00:49:22;2.60;;;2.50;;
7154;SDS011;3619;53.784;10.440;2023-10-13T00:51:50;2.53;;;2.33;;
7154;SDS011;3619;53.784;10.440;2023-10-13T00:54:17;2.57;;;2.47;;
7154;SDS011;3619;53.784;10.440;2023-10-13T00:56:52;2.37;;;2.27;;
7154;SDS011;3619;53.784;10.440;2023-10-13T00:59:29;1.90;;;1.83;;
7154;SDS011;3619;53.784;10.440;2023-10-13T01:01:59;2.00;;;1.90;;
7154;SDS011;3619;53.784;10.440;2023-10-13T01:04:46;2.30;;;2.20;;
7154;SDS011;3619;53.784;10.440;2023-10-13T01:07:14;2.30;;;2.17;;
7154;SDS011;3619;53.784;10.440;2023-10-13T01:09:42;2.33;;;2.23;;
7154;SDS011;3619;53.784;10.440;2023-10-13T01:12:08;2.27;;;2.17;;
7154;SDS011;3619;53.784;10.440;2023-10-13T01:14:36;2.60;;;2.50;;
7154;SDS011;3619;53.784;10.440;2023-10-13T01:17:02;2.40;;;2.30;;
7154;SDS011;3619;53.784;10.440;2023-10-13T01:19:29;2.13;;;2.03;;
7154;SDS011;3619;53.784;10.440;2023-10-13T01:22:03;2.70;;;2.60;;
7154;SDS011;3619;53.784;10.440;2023-10-13T01:24:33;2.07;;;1.97;;
7154;SDS011;3619;53.784;10.440;2023-10-13T01:27:00;2.30;;;2.20;;
7154;SDS011;3619;53.784;10.440;2023-10-13T01:29:40;2.00;;;1.90;;
7154;SDS011;3619;53.784;10.440;2023-10-13T01:32:05;1.63;;;1.63;;
7154;SDS011;3619;53.784;10.440;2023-10-13T01:34:38;1.40;;;1.40;;
7154;SDS011;3619;53.784;10.440;2023-10-13T01:37:05;2.37;;;2.17;;
7154;SDS011;3619;53.784;10.440;2023-10-13T01:39:33;1.50;;;1.50;;
7154;SDS011;3619;53.784;10.440;2023-10-13T01:41:59;2.27;;;2.17;;
7154;SDS011;3619;53.784;10.440;2023-10-13T01:44:26;1.47;;;1.47;;
7154;SDS011;3619;53.784;10.440;2023-10-13T01:46:53;1.30;;;1.30;;
7154;SDS011;3619;53.784;10.440;2023-10-13T01:49:20;2.87;;;2.77;;
7154;SDS011;3619;53.784;10.440;2023-10-13T01:51:48;2.17;;;2.07;;
7154;SDS011;3619;53.784;10.440;2023-10-13T01:54:14;1.60;;;1.60;;
7154;SDS011;3619;53.784;10.440;2023-10-13T01:56:42;1.70;;;1.70;;
7154;SDS011;3619;53.784;10.440;2023-10-13T01:59:10;1.60;;;1.60;;
7154;SDS011;3619;53.784;10.440;2023-10-13T02:01:37;2.10;;;2.00;;
7154;SDS011;3619;53.784;10.440;2023-10-13T02:04:05;1.40;;;1.40;;
7154;SDS011;3619;53.784;10.440;2023-10-13T02:06:32;1.70;;;1.70;;
7154;SDS011;3619;53.784;10.440;2023-10-13T02:09:01;1.83;;;1.80;;
7154;SDS011;3619;53.784;10.440;2023-10-13T02:11:35;3.70;;;3.50;;
7154;SDS011;3619;53.784;10.440;2023-10-13T02:14:04;1.50;;;1.50;;
7154;SDS011;3619;53.784;10.440;2023-10-13T02:16:31;1.93;;;1.83;;
7154;SDS011;3619;53.784;10.440;2023-10-13T02:18:58;4.40;;;1.97;;
7154;SDS011;3619;53.784;10.440;2023-10-13T02:21:29;1.70;;;1.70;;
7154;SDS011;3619;53.784;10.440;2023-10-13T02:23:57;1.70;;;1.70;;
7154;SDS011;3619;53.784;10.440;2023-10-13T02:26:29;1.40;;;1.40;;
7154;SDS011;3619;53.784;10.440;2023-10-13T02:28:57;2.20;;;2.10;;
7154;SDS011;3619;53.784;10.440;2023-10-13T02:31:25;1.97;;;1.87;;
7154;SDS011;3619;53.784;10.440;2023-10-13T02:33:53;2.27;;;2.17;;
7154;SDS011;3619;53.784;10.440;2023-10-13T02:36:20;2.33;;;2.13;;
7154;SDS011;3619;53.784;10.440;2023-10-13T02:39:01;1.90;;;1.87;;
7154;SDS011;3619;53.784;10.440;2023-10-13T02:41:32;1.63;;;1.63;;
7154;SDS011;3619;53.784;10.440;2023-10-13T02:44:02;2.23;;;2.13;;
7154;SDS011;3619;53.784;10.440;2023-10-13T02:46:32;2.83;;;2.63;;
7154;SDS011;3619;53.784;10.440;2023-10-13T02:49:01;2.00;;;1.90;;
7154;SDS011;3619;53.784;10.440;2023-10-13T02:51:34;1.50;;;1.50;;
7154;SDS011;3619;53.784;10.440;2023-10-13T02:54:01;1.70;;;1.70;;
7154;SDS011;3619;53.784;10.440;2023-10-13T02:56:34;1.87;;;1.77;;
7154;SDS011;3619;53.784;10.440;2023-10-13T02:59:03;3.07;;;2.93;;
7154;SDS011;3619;53.784;10.440;2023-10-13T03:01:33;1.50;;;1.50;;
7154;SDS011;3619;53.784;10.440;2023-10-13T03:03:59;3.27;;;2.73;;
7154;SDS011;3619;53.784;10.440;2023-10-13T03:06:28;2.10;;;2.00;;
7154;SDS011;3619;53.784;10.440;2023-10-13T03:08:57;2.03;;;1.93;;
7154;SDS011;3619;53.784;10.440;2023-10-13T03:11:25;1.87;;;1.77;;
7154;SDS011;3619;53.784;10.440;2023-10-13T03:13:59;4.73;;;2.23;;
7154;SDS011;3619;53.784;10.440;2023-10-13T03:16:32;2.10;;;2.00;;
7154;SDS011;3619;53.784;10.440;2023-10-13T03:19:00;5.53;;;3.07;;
7154;SDS011;3619;53.784;10.440;2023-10-13T03:21:25;4.30;;;3.20;;
7154;SDS011;3619;53.784;10.440;2023-10-13T03:23:56;2.83;;;2.17;;
7154;SDS011;3619;53.784;10.440;2023-10-13T03:26:29;2.20;;;2.10;;
7154;SDS011;3619;53.784;10.440;2023-10-13T03:29:00;3.23;;;3.00;;
7154;SDS011;3619;53.784;10.440;2023-10-13T03:31:28;2.03;;;1.93;;
7154;SDS011;3619;53.784;10.440;2023-10-13T03:33:56;1.70;;;1.63;;
7154;SDS011;3619;53.784;10.440;2023-10-13T03:36:25;1.60;;;1.60;;
7154;SDS011;3619;53.784;10.440;2023-10-13T03:39:15;2.67;;;2.37;;
7154;SDS011;3619;53.784;10.440;2023-10-13T03:41:42;1.10;;;1.10;;
7154;SDS011;3619;53.784;10.440;2023-10-13T03:44:10;2.43;;;2.33;;
7154;SDS011;3619;53.784;10.440;2023-10-13T03:46:46;2.30;;;2.20;;
7154;SDS011;3619;53.784;10.440;2023-10-13T03:49:16;1.90;;;1.80;;
7154;SDS011;3619;53.784;10.440;2023-10-13T03:51:46;1.43;;;1.43;;
7154;SDS011;3619;53.784;10.440;2023-10-13T03:54:14;1.93;;;1.83;;
7154;SDS011;3619;53.784;10.440;2023-10-13T03:56:42;2.87;;;2.63;;
7154;SDS011;3619;53.784;10.440;2023-10-13T03:59:10;1.90;;;1.80;;
7154;SDS011;3619;53.784;10.440;2023-10-13T04:01:44;1.77;;;1.77;;
7154;SDS011;3619;53.784;10.440;2023-10-13T04:04:12;3.67;;;3.43;;
7154;SDS011;3619;53.784;10.440;2023-10-13T04:06:42;2.20;;;1.97;;
7154;SDS011;3619;53.784;10.440;2023-10-13T04:09:20;1.63;;;1.53;;
7154;SDS011;3619;53.784;10.440;2023-10-13T04:12:35;15.60;;;2.07;;
7154;SDS011;3619;53.784;10.440;2023-10-13T04:15:19;1.80;;;1.80;;
7154;SDS011;3619;53.784;10.440;2023-10-13T04:17:49;1.70;;;1.60;;
7154;SDS011;3619;53.784;10.440;2023-10-13T04:20:17;3.97;;;2.73;;
7154;SDS011;3619;53.784;10.440;2023-10-13T04:23:05;8.23;;;2.20;;
7154;SDS011;3619;53.784;10.440;2023-10-13T04:25:44;1.93;;;1.83;;
7154;SDS011;3619;53.784;10.440;2023-10-13T04:28:29;2.33;;;2.23;;
7154;SDS011;3619;53.784;10.440;2023-10-13T04:31:15;1.87;;;1.77;;
7154;SDS011;3619;53.784;10.440;2023-10-13T04:33:50;1.10;;;1.10;;
7154;SDS011;3619;53.784;10.440;2023-10-13T04:36:27;1.40;;;1.40;;
7154;SDS011;3619;53.784;10.440;2023-10-13T04:39:11;1.37;;;1.37;;
7154;SDS011;3619;53.784;10.440;2023-10-13T04:41:54;2.00;;;1.90;;
7154;SDS011;3619;53.784;10.440;2023-10-13T04:44:23;2.57;;;2.47;;
7154;SDS011;3619;53.784;10.440;2023-10-13T04:47:09;2.03;;;1.93;;
7154;SDS011;3619;53.784;10.440;2023-10-13T04:49:44;2.13;;;2.03;;
7154;SDS011;3619;53.784;10.440;2023-10-13T04:52:25;1.40;;;1.40;;
7154;SDS011;3619;53.784;10.440;2023-10-13T04:55:17;3.50;;;1.90;;
7154;SDS011;3619;53.784;10.440;2023-10-13T04:58:02;1.70;;;1.67;;
7154;SDS011;3619;53.784;10.440;2023-10-13T05:00:39;2.87;;;2.70;;
7154;SDS011;3619;53.784;10.440;2023-10-13T05:03:21;1.60;;;1.60;;
7154;SDS011;3619;53.784;10.440;2023-10-13T05:06:19;2.10;;;2.00;;
7154;SDS011;3619;53.784;10.440;2023-10-13T05:09:03;3.83;;;2.53;;
7154;SDS011;3619;53.784;10.440;2023-10-13T05:11:49;3.43;;;2.40;;
7154;SDS011;3619;53.784;10.440;2023-10-13T05:14:33;1.73;;;1.40;;
7154;SDS011;3619;53.784;10.440;2023-10-13T05:17:18;1.77;;;1.67;;
7154;SDS011;3619;53.784;10.440;2023-10-13T05:20:02;2.13;;;2.03;;
7154;SDS011;3619;53.784;10.440;2023-10-13T05:22:48;1.77;;;1.73;;
7154;SDS011;3619;53.784;10.440;2023-10-13T05:25:48;2.27;;;1.90;;
7154;SDS011;3619;53.784;10.440;2023-10-13T05:28:33;1.60;;;1.53;;
7154;SDS011;3619;53.784;10.440;2023-10-13T05:31:17;2.03;;;1.93;;
7154;SDS011;3619;53.784;10.440;2023-10-13T05:34:04;1.10;;;1.10;;
7154;SDS011;3619;53.784;10.440;2023-10-13T05:36:48;1.87;;;1.73;;
7154;SDS011;3619;53.784;10.440;2023-10-13T05:39:33;1.60;;;1.50;;
7154;SDS011;3619;53.784;10.440;2023-10-13T05:42:17;2.10;;;1.90;;
7154;SDS011;3619;53.784;10.440;2023-10-13T05:45:03;1.87;;;1.77;;
7154;SDS011;3619;53.784;10.440;2023-10-13T05:47:45;2.27;;;2.10;;
7154;SDS011;3619;53.784;10.440;2023-10-13T05:50:15;2.50;;;1.80;;
7154;SDS011;3619;53.784;10.440;2023-10-13T05:53:14;1.60;;;1.60;;
7154;SDS011;3619;53.784;10.440;2023-10-13T05:56:01;1.63;;;1.53;;
7154;SDS011;3619;53.784;10.440;2023-10-13T05:58:47;3.07;;;2.83;;
7154;SDS011;3619;53.784;10.440;2023-10-13T06:01:33;2.23;;;2.07;;
7154;SDS011;3619;53.784;10.440;2023-10-13T06:04:17;1.77;;;1.67;;
7154;SDS011;3619;53.784;10.440;2023-10-13T06:07:01;1.20;;;1.20;;
7154;SDS011;3619;53.784;10.440;2023-10-13T06:09:50;1.63;;;1.60;;
7154;SDS011;3619;53.784;10.440;2023-10-13T06:12:35;2.63;;;2.33;;
7154;SDS011;3619;53.784;10.440;2023-10-13T06:15:19;7.90;;;3.40;;
7154;SDS011;3619;53.784;10.440;2023-10-13T06:18:07;1.93;;;1.83;;
7154;SDS011;3619;53.784;10.440;2023-10-13T06:20:52;3.43;;;3.23;;
7154;SDS011;3619;53.784;10.440;2023-10-13T06:23:37;3.00;;;2.70;;
7154;SDS011;3619;53.784;10.440;2023-10-13T06:26:21;2.50;;;2.30;;
7154;SDS011;3619;53.784;10.440;2023-10-13T06:29:06;2.03;;;1.93;;
7154;SDS011;3619;53.784;10.440;2023-10-13T06:31:33;2.33;;;2.10;;
7154;SDS011;3619;53.784;10.440;2023-10-13T06:34:03;2.53;;;2.33;;
7154;SDS011;3619;53.784;10.440;2023-10-13T06:36:30;1.77;;;1.67;;
7154;SDS011;3619;53.784;10.440;2023-10-13T06:38:58;1.77;;;1.67;;
7154;SDS011;3619;53.784;10.440;2023-10-13T06:41:38;3.53;;;3.23;;
7154;SDS011;3619;53.784;10.440;2023-10-13T06:44:06;2.00;;;1.63;;
7154;SDS011;3619;53.784;10.440;2023-10-13T06:46:40;1.77;;;1.63;;
7154;SDS011;3619;53.784;10.440;2023-10-13T06:49:08;14.40;;;2.60;;
7154;SDS011;3619;53.784;10.440;2023-10-13T06:51:35;2.13;;;2.03;;
7154;SDS011;3619;53.784;10.440;2023-10-13T06:54:04;2.37;;;2.17;;
7154;SDS011;3619;53.784;10.440;2023-10-13T06:56:36;2.97;;;2.73;;
7154;SDS011;3619;53.784;10.440;2023-10-13T06:59:05;2.27;;;2.17;;
7154;SDS011;3619;53.784;10.440;2023-10-13T07:01:33;2.70;;;2.50;;
7154;SDS011;3619;53.784;10.440;2023-10-13T07:04:05;2.00;;;1.83;;
7154;SDS011;3619;53.784;10.440;2023-10-13T07:06:39;2.80;;;2.60;;
7154;SDS011;3619;53.784;10.440;2023-10-13T07:09:13;4.03;;;3.73;;
7154;SDS011;3619;53.784;10.440;2023-10-13T07:12:02;2.07;;;2.00;;
7154;SDS011;3619;53.784;10.440;2023-10-13T07:14:31;1.60;;;1.57;;
7154;SDS011;3619;53.784;10.440;2023-10-13T07:17:00;4.20;;;2.77;;
7154;SDS011;3619;53.784;10.440;2023-10-13T07:19:33;2.33;;;2.23;;
7154;SDS011;3619;53.784;10.440;2023-10-13T07:22:01;3.03;;;2.77;;
7154;SDS011;3619;53.784;10.440;2023-10-13T07:24:45;2.43;;;2.23;;
7154;SDS011;3619;53.784;10.440;2023-10-13T07:27:15;2.30;;;2.20;;
7154;SDS011;3619;53.784;10.440;2023-10-13T07:29:48;1.97;;;1.87;;
7154;SDS011;3619;53.784;10.440;2023-10-13T07:32:21;3.10;;;2.87;;
7154;SDS011;3619;53.784;10.440;2023-10-13T07:34:53;5.17;;;2.30;;
7154;SDS011;3619;53.784;10.440;2023-10-13T07:37:22;2.53;;;2.43;;
7154;SDS011;3619;53.784;10.440;2023-10-13T07:39:53;2.53;;;2.43;;
7154;SDS011;3619;53.784;10.440;2023-10-13T07:42:22;5.53;;;2.17;;
7154;SDS011;3619;53.784;10.440;2023-10-13T07:44:48;3.07;;;2.87;;
7154;SDS011;3619;53.784;10.440;2023-10-13T07:47:15;2.47;;;2.27;;
7154;SDS011;3619;53.784;10.440;2023-10-13T07:49:45;2.10;;;2.00;;
7154;SDS011;3619;53.784;10.440;2023-10-13T07:52:17;3.00;;;2.90;;
7154;SDS011;3619;53.784;10.440;2023-10-13T07:55:01;4.33;;;3.93;;
7154;SDS011;3619;53.784;10.440;2023-10-13T07:57:38;2.73;;;2.57;;
7154;SDS011;3619;53.784;10.440;2023-10-13T08:00:19;2.77;;;2.43;;
7154;SDS011;3619;53.784;10.440;2023-10-13T08:02:58;2.00;;;1.93;;
7154;SDS011;3619;53.784;10.440;2023-10-13T08:05:35;3.07;;;2.33;;
7154;SDS011;3619;53.784;10.440;2023-10-13T08:08:22;2.93;;;2.53;;
7154;SDS011;3619;53.784;10.440;2023-10-13T08:10:51;2.53;;;2.33;;
7154;SDS011;3619;53.784;10.440;2023-10-13T08:13:21;2.77;;;2.30;;
7154;SDS011;3619;53.784;10.440;2023-10-13T08:15:49;4.03;;;2.60;;
7154;SDS011;3619;53.784;10.440;2023-10-13T08:18:17;5.60;;;3.17;;
7154;SDS011;3619;53.784;10.440;2023-10-13T08:20:55;2.50;;;2.30;;
7154;SDS011;3619;53.784;10.440;2023-10-13T08:23:29;2.60;;;2.40;;
7154;SDS011;3619;53.784;10.440;2023-10-13T08:26:23;3.47;;;3.27;;
7154;SDS011;3619;53.784;10.440;2023-10-13T08:29:08;7.67;;;3.17;;
7154;SDS011;3619;53.784;10.440;2023-10-13T08:31:53;3.83;;;3.63;;
7154;SDS011;3619;53.784;10.440;2023-10-13T08:34:41;5.83;;;4.97;;
7154;SDS011;3619;53.784;10.440;2023-10-13T08:37:22;2.80;;;2.60;;
7154;SDS011;3619;53.784;10.440;2023-10-13T08:39:55;2.23;;;2.13;;
7154;SDS011;3619;53.784;10.440;2023-10-13T08:42:40;1.53;;;1.53;;
7154;SDS011;3619;53.784;10.440;2023-10-13T08:45:27;2.23;;;2.13;;
7154;SDS011;3619;53.784;10.440;2023-10-13T08:48:10;3.27;;;2.97;;
7154;SDS011;3619;53.784;10.440;2023-10-13T08:50:42;5.13;;;2.43;;
7154;SDS011;3619;53.784;10.440;2023-10-13T08:53:19;2.00;;;1.90;;
7154;SDS011;3619;53.784;10.440;2023-10-13T08:55:58;1.60;;;1.60;;
7154;SDS011;3619;53.784;10.440;2023-10-13T08:58:33;1.87;;;1.77;;
7154;SDS011;3619;53.784;10.440;2023-10-13T09:01:19;2.73;;;2.63;;
7154;SDS011;3619;53.784;10.440;2023-10-13T09:04:11;1.60;;;1.60;;
7154;SDS011;3619;53.784;10.440;2023-10-13T09:06:48;2.23;;;2.13;;
7154;SDS011;3619;53.784;10.440;2023-10-13T09:09:30;3.63;;;3.43;;
7154;SDS011;3619;53.784;10.440;2023-10-13T09:12:06;6.50;;;4.80;;
7154;SDS011;3619;53.784;10.440;2023-10-13T09:14:38;2.87;;;2.67;;
7154;SDS011;3619;53.784;10.440;2023-10-13T09:17:09;1.87;;;1.77;;
7154;SDS011;3619;53.784;10.440;2023-10-13T09:19:44;1.60;;;1.60;;
7154;SDS011;3619;53.784;10.440;2023-10-13T09:22:21;2.77;;;2.57;;
7154;SDS011;3619;53.784;10.440;2023-10-13T09:24:51;2.23;;;2.13;;
7154;SDS011;3619;53.784;10.440;2023-10-13T09:27:24;1.80;;;1.80;;
7154;SDS011;3619;53.784;10.440;2023-10-13T09:29:58;3.43;;;2.60;;
7154;SDS011;3619;53.784;10.440;2023-10-13T09:32:33;1.80;;;1.70;;
7154;SDS011;3619;53.784;10.440;2023-10-13T09:35:10;1.40;;;1.40;;
7154;SDS011;3619;53.784;10.440;2023-10-13T09:37:44;2.30;;;2.20;;
7154;SDS011;3619;53.784;10.440;2023-10-13T09:40:13;2.87;;;1.73;;
7154;SDS011;3619;53.784;10.440;2023-10-13T09:43:01;2.57;;;2.47;;
7154;SDS011;3619;53.784;10.440;2023-10-13T09:45:32;1.90;;;1.80;;
7154;SDS011;3619;53.784;10.440;2023-10-13T09:48:01;1.70;;;1.70;;
7154;SDS011;3619;53.784;10.440;2023-10-13T09:50:33;3.40;;;3.23;;
7154;SDS011;3619;53.784;10.440;2023-10-13T09:53:11;1.63;;;1.63;;
7154;SDS011;3619;53.784;10.440;2023-10-13T09:55:40;2.13;;;2.03;;
7154;SDS011;3619;53.784;10.440;2023-10-13T09:58:13;2.60;;;2.50;;
7154;SDS011;3619;53.784;10.440;2023-10-13T10:00:43;2.23;;;2.13;;
7154;SDS011;3619;53.784;10.440;2023-10-13T10:03:21;1.93;;;1.87;;
7154;SDS011;3619;53.784;10.440;2023-10-13T10:06:04;2.10;;;2.00;;
7154;SDS011;3619;53.784;10.440;2023-10-13T10:08:39;2.17;;;2.07;;
7154;SDS011;3619;53.784;10.440;2023-10-13T10:14:23;2.63;;;2.53;;
7154;SDS011;3619;53.784;10.440;2023-10-13T10:16:59;2.40;;;2.30;;
7154;SDS011;3619;53.784;10.440;2023-10-13T10:19:33;3.13;;;2.80;;
7154;SDS011;3619;53.784;10.440;2023-10-13T10:22:01;2.57;;;2.47;;
7154;SDS011;3619;53.784;10.440;2023-10-13T10:24:35;3.53;;;3.43;;
7154;SDS011;3619;53.784;10.440;2023-10-13T10:27:03;2.67;;;2.57;;
7154;SDS011;3619;53.784;10.440;2023-10-13T10:29:32;2.93;;;2.83;;
7154;SDS011;3619;53.784;10.440;2023-10-13T10:31:59;3.10;;;3.00;;
7154;SDS011;3619;53.784;10.440;2023-10-13T10:34:31;3.50;;;3.40;;
7154;SDS011;3619;53.784;10.440;2023-10-13T10:37:00;4.13;;;4.03;;
7154;SDS011;3619;53.784;10.440;2023-10-13T10:39:35;4.20;;;4.10;;
7154;SDS011;3619;53.784;10.440;2023-10-13T10:42:10;4.00;;;3.90;;
7154;SDS011;3619;53.784;10.440;2023-10-13T10:44:49;4.27;;;4.07;;
7154;SDS011;3619;53.784;10.440;2023-10-13T10:47:20;4.27;;;4.17;;
7154;SDS011;3619;53.784;10.440;2023-10-13T10:49:56;4.43;;;4.23;;
7154;SDS011;3619;53.784;10.440;2023-10-13T10:52:23;4.47;;;4.30;;
7154;SDS011;3619;53.784;10.440;2023-10-13T10:54:58;4.77;;;4.57;;
7154;SDS011;3619;53.784;10.440;2023-10-13T10:57:26;5.97;;;5.77;;
7154;SDS011;3619;53.784;10.440;2023-10-13T10:59:56;7.50;;;7.10;;
7154;SDS011;3619;53.784;10.440;2023-10-13T11:02:38;6.07;;;5.87;;
7154;SDS011;3619;53.784;10.440;2023-10-13T11:05:05;6.03;;;5.73;;
7154;SDS011;3619;53.784;10.440;2023-10-13T11:07:34;6.70;;;6.40;;
7154;SDS011;3619;53.784;10.440;2023-10-13T11:10:11;7.17;;;6.87;;
7154;SDS011;3619;53.784;10.440;2023-10-13T11:12:53;6.57;;;6.37;;
7154;SDS011;3619;53.784;10.440;2023-10-13T11:15:22;5.83;;;5.63;;
7154;SDS011;3619;53.784;10.440;2023-10-13T11:17:58;5.70;;;5.40;;
7154;SDS011;3619;53.784;10.440;2023-10-13T11:20:25;5.43;;;5.23;;
7154;SDS011;3619;53.784;10.440;2023-10-13T11:22:58;5.93;;;5.73;;
7154;SDS011;3619;53.784;10.440;2023-10-13T11:25:30;5.67;;;5.47;;
7154;SDS011;3619;53.784;10.440;2023-10-13T11:28:09;6.00;;;5.70;;
7154;SDS011;3619;53.784;10.440;2023-10-13T11:30:43;6.17;;;5.97;;
7154;SDS011;3619;53.784;10.440;2023-10-13T11:33:15;7.93;;;7.33;;
7154;SDS011;3619;53.784;10.440;2023-10-13T11:35:48;6.13;;;5.93;;
7154;SDS011;3619;53.784;10.440;2023-10-13T11:38:20;6.47;;;6.27;;
7154;SDS011;3619;53.784;10.440;2023-10-13T11:40:52;7.33;;;7.03;;
7154;SDS011;3619;53.784;10.440;2023-10-13T11:43:40;7.43;;;7.13;;
7154;SDS011;3619;53.784;10.440;2023-10-13T11:46:26;6.77;;;6.50;;
7154;SDS011;3619;53.784;10.440;2023-10-13T11:49:12;7.17;;;6.87;;
7154;SDS011;3619;53.784;10.440;2023-10-13T11:51:57;8.20;;;7.90;;
7154;SDS011;3619;53.784;10.440;2023-10-13T11:54:35;7.33;;;7.03;;
7154;SDS011;3619;53.784;10.440;2023-10-13T11:57:08;7.57;;;7.27;;
7154;SDS011;3619;53.784;10.440;2023-10-13T11:59:36;8.83;;;8.53;;
7154;SDS011;3619;53.784;10.440;2023-10-13T12:02:12;7.37;;;7.07;;
7154;SDS011;3619;53.784;10.440;2023-10-13T12:04:57;8.23;;;7.93;;
7154;SDS011;3619;53.784;10.440;2023-10-13T12:07:24;7.97;;;7.57;;
7154;SDS011;3619;53.784;10.440;2023-10-13T12:10:10;7.50;;;7.20;;
7154;SDS011;3619;53.784;10.440;2023-10-13T12:12:42;9.77;;;9.27;;
7154;SDS011;3619;53.784;10.440;2023-10-13T12:15:11;10.53;;;10.13;;
7154;SDS011;3619;53.784;10.440;2023-10-13T12:17:51;10.77;;;10.33;;
7154;SDS011;3619;53.784;10.440;2023-10-13T12:20:23;12.67;;;12.17;;
7154;SDS011;3619;53.784;10.440;2023-10-13T12:22:59;15.97;;;14.70;;
7154;SDS011;3619;53.784;10.440;2023-10-13T12:25:38;20.83;;;20.03;;
7154;SDS011;3619;53.784;10.440;2023-10-13T12:28:22;22.23;;;21.13;;
7154;SDS011;3619;53.784;10.440;2023-10-13T12:30:52;20.40;;;19.60;;
7154;SDS011;3619;53.784;10.440;2023-10-13T12:33:21;22.97;;;22.07;;
7154;SDS011;3619;53.784;10.440;2023-10-13T12:36:01;24.57;;;23.67;;
7154;SDS011;3619;53.784;10.440;2023-10-13T12:38:40;26.60;;;25.53;;
7154;SDS011;3619;53.784;10.440;2023-10-13T12:41:25;25.70;;;24.67;;
7154;SDS011;3619;53.784;10.440;2023-10-13T12:44:09;28.73;;;27.63;;
7154;SDS011;3619;53.784;10.440;2023-10-13T12:46:53;28.67;;;27.50;;
7154;SDS011;3619;53.784;10.440;2023-10-13T12:49:39;28.87;;;27.77;;
7154;SDS011;3619;53.784;10.440;2023-10-13T12:52:17;23.47;;;22.47;;
7154;SDS011;3619;53.784;10.440;2023-10-13T12:54:45;26.07;;;24.93;;
7154;SDS011;3619;53.784;10.440;2023-10-13T12:57:23;24.43;;;23.43;;
7154;SDS011;3619;53.784;10.440;2023-10-13T12:59:52;26.03;;;24.83;;
7154;SDS011;3619;53.784;10.440;2023-10-13T13:02:19;27.00;;;25.90;;
7154;SDS011;3619;53.784;10.440;2023-10-13T13:04:48;32.23;;;30.97;;
7154;SDS011;3619;53.784;10.440;2023-10-13T13:07:19;28.20;;;27.03;;
7154;SDS011;3619;53.784;10.440;2023-10-13T13:09:46;33.67;;;32.20;;
7154;SDS011;3619;53.784;10.440;2023-10-13T13:12:13;37.60;;;36.17;;
7154;SDS011;3619;53.784;10.440;2023-10-13T13:14:41;43.93;;;42.20;;
7154;SDS011;3619;53.784;10.440;2023-10-13T13:17:11;39.23;;;37.73;;
7154;SDS011;3619;53.784;10.440;2023-10-13T13:19:38;43.10;;;41.43;;
7154;SDS011;3619;53.784;10.440;2023-10-13T13:22:13;45.53;;;43.80;;
7154;SDS011;3619;53.784;10.440;2023-10-13T13:24:43;42.70;;;40.93;;
7154;SDS011;3619;53.784;10.440;2023-10-13T13:27:10;41.57;;;39.50;;
7154;SDS011;3619;53.784;10.440;2023-10-13T13:29:39;47.17;;;45.33;;
7154;SDS011;3619;53.784;10.440;2023-10-13T13:32:06;46.23;;;44.50;;
7154;SDS011;3619;53.784;10.440;2023-10-13T13:34:42;45.53;;;43.77;;
7154;SDS011;3619;53.784;10.440;2023-10-13T13:37:09;36.53;;;35.13;;
7154;SDS011;3619;53.784;10.440;2023-10-13T13:39:39;44.53;;;42.83;;
7154;SDS011;3619;53.784;10.440;2023-10-13T13:42:10;44.67;;;42.90;;
7154;SDS011;3619;53.784;10.440;2023-10-13T13:44:42;42.07;;;40.47;;
7154;SDS011;3619;53.784;10.440;2023-10-13T13:47:11;41.03;;;39.43;;
7154;SDS011;3619;53.784;10.440;2023-10-13T13:49:38;36.87;;;35.47;;
7154;SDS011;3619;53.784;10.440;2023-10-13T13:52:06;36.23;;;34.53;;
7154;SDS011;3619;53.784;10.440;2023-10-13T13:54:33;37.80;;;36.37;;
7154;SDS011;3619;53.784;10.440;2023-10-13T13:57:01;41.00;;;39.40;;
7154;SDS011;3619;53.784;10.440;2023-10-13T13:59:29;57.03;;;54.73;;
7154;SDS011;3619;53.784;10.440;2023-10-13T14:01:59;60.27;;;57.67;;
7154;SDS011;3619;53.784;10.440;2023-10-13T14:04:32;54.23;;;52.17;;
7154;SDS011;3619;53.784;10.440;2023-10-13T14:06:59;55.77;;;53.67;;
7154;SDS011;3619;53.784;10.440;2023-10-13T14:09:32;53.97;;;51.90;;
7154;SDS011;3619;53.784;10.440;2023-10-13T14:12:06;53.73;;;51.70;;
7154;SDS011;3619;53.784;10.440;2023-10-13T14:14:59;46.90;;;45.13;;
7154;SDS011;3619;53.784;10.440;2023-10-13T14:17:26;51.43;;;49.47;;
7154;SDS011;3619;53.784;10.440;2023-10-13T14:19:55;30.83;;;29.63;;
7154;SDS011;3619;53.784;10.440;2023-10-13T14:22:22;41.70;;;40.00;;
7154;SDS011;3619;53.784;10.440;2023-10-13T14:24:51;38.90;;;37.40;;
7154;SDS011;3619;53.784;10.440;2023-10-13T14:27:23;43.83;;;42.13;;
7154;SDS011;3619;53.784;10.440;2023-10-13T14:29:51;39.50;;;37.53;;
7154;SDS011;3619;53.784;10.440;2023-10-13T14:32:19;37.60;;;36.13;;
7154;SDS011;3619;53.784;10.440;2023-10-13T14:34:49;36.97;;;35.53;;
7154;SDS011;3619;53.784;10.440;2023-10-13T14:37:21;27.63;;;26.60;;
7154;SDS011;3619;53.784;10.440;2023-10-13T14:39:53;39.50;;;38.00;;
7154;SDS011;3619;53.784;10.440;2023-10-13T14:42:23;36.47;;;35.07;;
7154;SDS011;3619;53.784;10.440;2023-10-13T14:44:50;41.87;;;40.13;;
7154;SDS011;3619;53.784;10.440;2023-10-13T14:47:21;47.23;;;45.43;;
7154;SDS011;3619;53.784;10.440;2023-10-13T14:49:50;49.77;;;47.87;;
7154;SDS011;3619;53.784;10.440;2023-10-13T14:52:20;43.33;;;41.63;;
7154;SDS011;3619;53.784;10.440;2023-10-13T14:54:47;45.50;;;43.73;;
7154;SDS011;3619;53.784;10.440;2023-10-13T14:57:20;56.43;;;54.30;;
7154;SDS011;3619;53.784;10.440;2023-10-13T14:59:53;56.83;;;54.70;;
7154;SDS011;3619;53.784;10.440;2023-10-13T15:02:20;69.43;;;66.87;;
7154;SDS011;3619;53.784;10.440;2023-10-13T15:04:47;62.27;;;59.83;;
7154;SDS011;3619;53.784;10.440;2023-10-13T15:07:14;66.10;;;63.47;;
7154;SDS011;3619;53.784;10.440;2023-10-13T15:09:42;62.30;;;59.10;;
7154;SDS011;3619;53.784;10.440;2023-10-13T15:12:09;63.73;;;61.37;;
7154;SDS011;3619;53.784;10.440;2023-10-13T15:14:37;73.40;;;70.63;;
7154;SDS011;3619;53.784;10.440;2023-10-13T15:17:09;55.30;;;53.17;;
7154;SDS011;3619;53.784;10.440;2023-10-13T15:19:36;56.40;;;54.20;;
7154;SDS011;3619;53.784;10.440;2023-10-13T15:22:04;49.17;;;47.30;;
7154;SDS011;3619;53.784;10.440;2023-10-13T15:24:31;49.37;;;47.50;;
7154;SDS011;3619;53.784;10.440;2023-10-13T15:27:06;47.27;;;45.07;;
7154;SDS011;3619;53.784;10.440;2023-10-13T15:29:34;58.33;;;56.07;;
7154;SDS011;3619;53.784;10.440;2023-10-13T15:32:04;51.87;;;49.23;;
7154;SDS011;3619;53.784;10.440;2023-10-13T15:34:51;39.83;;;38.30;;
7154;SDS011;3619;53.784;10.440;2023-10-13T15:37:19;45.37;;;43.63;;
7154;SDS011;3619;53.784;10.440;2023-10-13T15:39:50;53.50;;;51.47;;